createdAt,value
2022-10-29T00:01:43.131Z,77.10
2022-10-29T00:04:11.107Z,77.00
2022-10-29T00:06:39.229Z,77.00
2022-10-29T00:09:07.441Z,76.90
2022-10-29T00:11:35.488Z,76.80
2022-10-29T00:14:06.047Z,76.80
2022-10-29T00:16:38.089Z,76.70
2022-10-29T00:19:06.841Z,76.80
2022-10-29T00:21:34.826Z,76.80
2022-10-29T00:24:02.670Z,76.80
2022-10-29T00:26:31.079Z,76.80
2022-10-29T00:28:59.151Z,76.80
2022-10-29T00:31:27.217Z,77.00
2022-10-29T00:33:56.581Z,77.00
2022-10-29T00:36:26.243Z,77.20
2022-10-29T00:38:54.180Z,77.20
2022-10-29T00:41:23.108Z,77.20
2022-10-29T00:43:51.978Z,77.40
2022-10-29T00:46:23.108Z,77.50
2022-10-29T00:48:52.034Z,77.50
2022-10-29T00:51:21.840Z,77.50
2022-10-29T00:53:51.438Z,77.30
2022-10-29T00:56:19.457Z,77.20
2022-10-29T00:58:47.746Z,77.10
2022-10-29T01:01:15.632Z,77.00
2022-10-29T01:03:43.729Z,77.10
2022-10-29T01:06:12.322Z,77.20
2022-10-29T01:08:41.701Z,77.40
2022-10-29T01:11:15.767Z,77.40
2022-10-29T01:13:49.672Z,77.50
2022-10-29T01:16:22.871Z,77.90
2022-10-29T01:18:55.395Z,78.20
2022-10-29T01:21:40.523Z,78.40
2022-10-29T01:24:26.287Z,78.80
2022-10-29T01:27:06.957Z,78.80
2022-10-29T01:29:42.464Z,78.80
2022-10-29T01:32:13.205Z,78.90
2022-10-29T01:34:44.678Z,79.00
2022-10-29T01:37:16.017Z,79.20
2022-10-29T01:39:46.023Z,79.60
2022-10-29T01:42:15.638Z,79.80
2022-10-29T01:44:46.617Z,79.80
2022-10-29T01:47:17.114Z,79.70
2022-10-29T01:49:46.443Z,79.90
2022-10-29T01:52:16.019Z,80.20
2022-10-29T01:54:44.538Z,80.30
2022-10-29T01:57:27.285Z,80.80
2022-10-29T01:59:56.359Z,81.00
2022-10-29T02:02:29.341Z,81.10
2022-10-29T02:05:03.813Z,81.10
2022-10-29T02:07:35.923Z,81.20
2022-10-29T02:10:08.631Z,81.50
2022-10-29T02:12:40.170Z,81.50
2022-10-29T02:15:10.306Z,81.50
2022-10-29T02:17:39.518Z,81.40
2022-10-29T02:20:08.479Z,81.50
2022-10-29T02:22:36.471Z,81.80
2022-10-29T02:25:04.868Z,81.90
2022-10-29T02:27:32.750Z,81.80
2022-10-29T02:30:00.700Z,81.70
2022-10-29T02:32:28.656Z,81.60
2022-10-29T02:34:57.863Z,81.80
2022-10-29T02:37:25.688Z,81.80
2022-10-29T02:39:53.555Z,81.90
2022-10-29T02:42:21.381Z,81.80
2022-10-29T02:44:49.231Z,81.80
2022-10-29T02:47:17.202Z,81.90
2022-10-29T02:49:45.111Z,81.90
2022-10-29T02:52:16.151Z,82.00
2022-10-29T02:54:44.468Z,82.20
2022-10-29T02:57:12.394Z,82.20
2022-10-29T02:59:40.241Z,82.20
2022-10-29T03:02:08.166Z,82.20
2022-10-29T03:04:36.191Z,82.20
2022-10-29T03:07:04.013Z,82.10
2022-10-29T03:09:33.198Z,82.10
2022-10-29T03:12:01.097Z,82.10
2022-10-29T03:14:28.985Z,82.20
2022-10-29T03:16:56.858Z,82.10
2022-10-29T03:19:24.675Z,81.90
2022-10-29T03:21:52.608Z,82.00
2022-10-29T03:24:20.538Z,82.10
2022-10-29T03:26:49.858Z,82.10
2022-10-29T03:29:17.703Z,82.10
2022-10-29T03:31:45.641Z,82.10
2022-10-29T03:34:13.525Z,82.20
2022-10-29T03:36:41.368Z,82.30
2022-10-29T03:39:09.245Z,82.20
2022-10-29T03:41:37.668Z,82.40
2022-10-29T03:44:06.998Z,82.50
2022-10-29T03:46:35.056Z,82.30
2022-10-29T03:49:03.602Z,82.40
2022-10-29T03:51:31.605Z,82.60
2022-10-29T03:53:59.452Z,82.80
2022-10-29T03:56:27.336Z,82.80
2022-10-29T03:58:55.428Z,82.80
2022-10-29T04:01:24.903Z,82.90
2022-10-29T04:03:52.862Z,82.90
2022-10-29T04:06:20.798Z,82.90
2022-10-29T04:08:48.704Z,83.20
2022-10-29T04:11:16.506Z,83.40
2022-10-29T04:13:44.314Z,83.40
2022-10-29T04:16:12.139Z,83.40
2022-10-29T04:18:41.440Z,83.50
2022-10-29T04:29:33.343Z,83.40
2022-10-29T04:32:01.171Z,83.50
2022-10-29T04:34:30.377Z,83.60
2022-10-29T04:36:58.241Z,83.60
2022-10-29T04:39:26.106Z,83.60
2022-10-29T04:41:53.961Z,83.50
2022-10-29T04:44:21.857Z,83.20
2022-10-29T04:46:49.709Z,83.10
2022-10-29T04:49:17.677Z,83.10
2022-10-29T04:51:46.937Z,83.00
2022-10-29T04:54:15.554Z,82.90
2022-10-29T04:56:43.587Z,83.00
2022-10-29T04:59:11.351Z,82.90
2022-10-29T05:01:39.166Z,82.80
2022-10-29T05:04:07.226Z,82.60
2022-10-29T05:06:35.152Z,82.50
2022-10-29T05:09:04.521Z,82.60
2022-10-29T05:11:32.341Z,82.70
2022-10-29T05:14:00.267Z,82.60
2022-10-29T05:16:28.049Z,82.60
2022-10-29T05:18:55.850Z,82.50
2022-10-29T05:21:23.691Z,82.40
2022-10-29T05:23:51.517Z,82.40
2022-10-29T05:26:20.680Z,82.40
2022-10-29T05:28:50.274Z,82.20
2022-10-29T05:31:18.451Z,82.10
2022-10-29T05:33:46.358Z,81.90
2022-10-29T05:36:14.147Z,81.90
2022-10-29T05:38:41.940Z,81.90
2022-10-29T05:41:09.910Z,81.80
2022-10-29T05:43:39.119Z,81.60
2022-10-29T05:46:06.963Z,81.50
2022-10-29T05:48:34.864Z,81.40
2022-10-29T05:51:02.701Z,81.30
2022-10-29T05:53:30.570Z,81.30
2022-10-29T05:55:59.347Z,81.30
2022-10-29T05:58:27.150Z,81.30
2022-10-29T06:00:56.452Z,81.30
2022-10-29T06:03:24.375Z,81.30
2022-10-29T06:05:52.266Z,81.30
2022-10-29T06:08:20.154Z,81.20
2022-10-29T06:10:48.110Z,81.30
2022-10-29T06:13:18.022Z,81.50
2022-10-29T06:15:46.309Z,81.60
2022-10-29T06:18:15.861Z,81.70
2022-10-29T06:20:44.435Z,81.60
2022-10-29T06:23:12.532Z,81.30
2022-10-29T06:25:40.498Z,81.60
2022-10-29T06:28:09.918Z,81.60
2022-10-29T06:30:38.000Z,81.70
2022-10-29T06:33:06.223Z,81.60
2022-10-29T06:38:07.804Z,81.70
2022-10-29T06:40:40.332Z,81.50
2022-10-29T06:43:09.195Z,81.10
2022-10-29T06:45:37.154Z,81.30
2022-10-29T06:48:06.043Z,81.10
2022-10-29T06:50:35.430Z,81.20
2022-10-29T06:53:10.957Z,81.30
2022-10-29T06:55:38.955Z,81.40
2022-10-29T06:58:07.622Z,81.10
2022-10-29T07:00:36.169Z,81.00
2022-10-29T07:03:04.957Z,81.10
2022-10-29T07:05:33.197Z,81.10
2022-10-29T07:08:02.616Z,80.90
2022-10-29T07:10:31.312Z,80.70
2022-10-29T07:12:59.542Z,80.70
2022-10-29T07:15:30.271Z,80.60
2022-10-29T07:17:59.501Z,80.40
2022-10-29T07:20:27.800Z,80.50
2022-10-29T07:22:57.676Z,80.70
2022-10-29T07:25:27.247Z,80.50
2022-10-29T07:27:55.900Z,80.30
2022-10-29T07:30:24.366Z,80.10
2022-10-29T07:32:52.391Z,80.00
2022-10-29T07:35:20.296Z,79.90
2022-10-29T07:37:49.942Z,80.00
2022-10-29T07:40:17.909Z,80.00
2022-10-29T07:42:47.111Z,80.10
2022-10-29T07:45:15.071Z,80.10
2022-10-29T07:47:43.079Z,79.90
2022-10-29T07:50:11.233Z,79.80
2022-10-29T07:52:39.173Z,79.90
2022-10-29T07:55:07.412Z,79.80
2022-10-29T07:57:35.362Z,79.70
2022-10-29T08:00:04.751Z,79.40
2022-10-29T08:02:40.015Z,79.10
2022-10-29T08:05:08.357Z,78.80
2022-10-29T08:07:36.266Z,78.00
2022-10-29T08:10:04.127Z,77.90
2022-10-29T08:12:31.944Z,76.90
2022-10-29T08:14:59.930Z,76.70
2022-10-29T08:17:31.644Z,76.30
2022-10-29T08:19:59.547Z,75.90
2022-10-29T08:22:27.472Z,76.00
2022-10-29T08:24:55.448Z,75.80
2022-10-29T08:27:23.283Z,75.00
2022-10-29T08:29:51.158Z,75.20
2022-10-29T08:32:19.058Z,74.80
2022-10-29T08:34:48.364Z,74.60
2022-10-29T08:37:18.063Z,74.70
2022-10-29T08:39:45.866Z,74.60
2022-10-29T08:42:22.849Z,74.50
2022-10-29T08:44:59.424Z,74.60
2022-10-29T08:47:27.344Z,74.30
2022-10-29T08:50:03.473Z,73.70
2022-10-29T08:52:34.963Z,73.40
2022-10-29T08:55:06.920Z,73.40
2022-10-29T08:57:38.356Z,72.90
2022-10-29T09:02:36.610Z,72.60
2022-10-29T09:05:06.345Z,72.30
2022-10-29T09:07:49.134Z,72.00
2022-10-29T09:10:21.180Z,71.80
2022-10-29T09:12:53.645Z,72.00
2022-10-29T09:15:39.728Z,72.00
2022-10-29T09:18:17.206Z,71.70
2022-10-29T09:20:52.885Z,71.90
2022-10-29T09:23:25.808Z,72.10
2022-10-29T09:25:56.414Z,72.10
2022-10-29T09:28:29.055Z,72.30
2022-10-29T09:31:06.166Z,72.00
2022-10-29T09:33:34.093Z,72.20
2022-10-29T09:36:03.505Z,72.40
2022-10-29T09:38:33.730Z,71.70
2022-10-29T09:41:02.698Z,71.60
2022-10-29T09:43:35.989Z,71.60
2022-10-29T09:46:08.004Z,71.70
2022-10-29T09:48:38.202Z,71.80
2022-10-29T09:51:14.834Z,71.90
2022-10-29T09:53:42.861Z,71.10
2022-10-29T09:56:10.921Z,71.10
2022-10-29T09:58:41.605Z,71.00
2022-10-29T10:01:09.536Z,70.40
2022-10-29T10:03:41.817Z,70.10
2022-10-29T10:06:10.360Z,70.20
2022-10-29T10:09:00.640Z,70.20
2022-10-29T10:11:31.329Z,69.60
2022-10-29T10:14:00.467Z,69.30
2022-10-29T10:16:29.524Z,68.50
2022-10-29T10:18:57.365Z,68.40
2022-10-29T10:21:25.920Z,67.50
2022-10-29T10:23:57.535Z,66.30
2022-10-29T10:26:29.702Z,62.00
2022-10-29T10:29:14.861Z,58.30
2022-10-29T10:31:43.737Z,56.00
2022-10-29T10:34:16.274Z,55.50
2022-10-29T10:36:45.431Z,55.10
2022-10-29T10:39:21.104Z,55.60
2022-10-29T10:41:50.171Z,56.10
2022-10-29T10:44:19.860Z,56.30
2022-10-29T10:46:48.335Z,55.90
2022-10-29T10:49:18.099Z,55.30
2022-10-29T10:51:47.412Z,55.30
2022-10-29T10:54:27.067Z,55.70
2022-10-29T10:56:58.458Z,56.40
2022-10-29T10:59:28.377Z,56.70
2022-10-29T11:01:56.786Z,57.20
2022-10-29T11:04:27.787Z,57.60
2022-10-29T11:06:56.605Z,58.20
2022-10-29T11:09:27.969Z,58.60
2022-10-29T11:11:59.123Z,59.00
2022-10-29T11:14:28.858Z,59.00
2022-10-29T11:16:57.451Z,58.10
2022-10-29T11:19:28.514Z,57.50
2022-10-29T11:22:02.290Z,57.80
2022-10-29T11:24:37.865Z,57.20
2022-10-29T11:27:07.525Z,57.10
2022-10-29T11:29:39.897Z,56.80
2022-10-29T11:32:12.591Z,57.30
2022-10-29T11:34:44.355Z,57.10
2022-10-29T11:37:15.445Z,56.90
2022-10-29T11:39:48.458Z,55.70
2022-10-29T11:42:16.335Z,55.40
2022-10-29T11:44:44.273Z,53.60
2022-10-29T11:47:21.122Z,52.80
2022-10-29T11:49:55.766Z,53.10
2022-10-29T11:52:33.251Z,53.80
2022-10-29T11:55:11.630Z,53.70
2022-10-29T11:57:43.445Z,53.90
2022-10-29T12:00:14.738Z,55.50
2022-10-29T12:03:03.430Z,56.60
2022-10-29T12:05:36.139Z,57.20
2022-10-29T12:08:10.884Z,58.90
2022-10-29T12:10:45.659Z,61.00
2022-10-29T12:13:17.784Z,61.40
2022-10-29T12:15:48.061Z,62.40
2022-10-29T12:18:23.307Z,63.10
2022-10-29T12:20:55.092Z,63.80
2022-10-29T12:23:26.193Z,63.90
2022-10-29T12:26:02.637Z,64.30
2022-10-29T12:28:38.988Z,64.80
2022-10-29T12:31:09.898Z,65.00
2022-10-29T12:33:42.079Z,65.40
2022-10-29T12:36:13.028Z,65.70
2022-10-29T12:38:42.424Z,66.10
2022-10-29T12:41:15.168Z,66.10
2022-10-29T12:43:43.631Z,66.10
2022-10-29T12:46:20.826Z,66.20
2022-10-29T12:49:02.501Z,66.40
2022-10-29T12:51:35.613Z,66.50
2022-10-29T12:54:13.894Z,66.60
2022-10-29T12:56:46.315Z,66.80
2022-10-29T12:59:31.331Z,67.00
2022-10-29T13:02:15.234Z,67.00
2022-10-29T13:05:09.992Z,66.80
2022-10-29T13:08:00.031Z,65.80
2022-10-29T13:10:41.250Z,65.70
2022-10-29T13:13:20.005Z,65.60
2022-10-29T13:15:49.104Z,65.80
2022-10-29T13:18:21.409Z,65.10
2022-10-29T13:20:50.579Z,64.80
2022-10-29T13:23:34.891Z,64.10
2022-10-29T13:26:03.364Z,64.10
2022-10-29T13:28:51.216Z,64.10
2022-10-29T13:31:37.694Z,64.10
2022-10-29T13:34:08.337Z,64.40
2022-10-29T13:36:37.634Z,65.60
2022-10-29T13:39:19.007Z,66.60
2022-10-29T13:41:51.162Z,66.80
2022-10-29T13:44:21.346Z,66.50
2022-10-29T13:46:52.763Z,66.50
2022-10-29T13:49:23.199Z,66.60
2022-10-29T13:51:53.611Z,66.50
2022-10-29T13:56:57.725Z,66.60
2022-10-29T13:59:30.132Z,66.50
2022-10-29T14:02:13.027Z,66.30
2022-10-29T14:04:43.188Z,66.30
2022-10-29T14:07:15.039Z,66.30
2022-10-29T14:09:45.409Z,66.20
2022-10-29T14:12:16.429Z,65.90
2022-10-29T14:14:49.799Z,65.80
2022-10-29T14:17:18.606Z,65.80
2022-10-29T14:19:47.259Z,65.70
2022-10-29T14:22:33.390Z,65.60
2022-10-29T14:25:03.446Z,66.00
2022-10-29T14:27:31.292Z,65.90
2022-10-29T14:30:19.209Z,66.10
2022-10-29T14:32:47.432Z,66.80
2022-10-29T14:35:16.599Z,67.40
2022-10-29T14:37:45.133Z,67.60
2022-10-29T14:40:17.738Z,67.80
2022-10-29T14:42:47.195Z,68.00
2022-10-29T14:45:18.578Z,68.40
2022-10-29T14:47:49.850Z,68.60
2022-10-29T14:50:19.676Z,68.60
2022-10-29T14:52:53.597Z,68.80
2022-10-29T14:55:25.202Z,68.90
2022-10-29T14:58:00.057Z,69.00
2022-10-29T15:00:30.003Z,69.10
2022-10-29T15:02:58.477Z,69.20
2022-10-29T15:05:27.861Z,69.30
2022-10-29T15:08:05.799Z,69.30
2022-10-29T15:10:45.238Z,69.50
2022-10-29T15:13:20.654Z,69.80
2022-10-29T15:15:53.892Z,70.00
2022-10-29T15:18:22.775Z,70.10
2022-10-29T15:20:51.595Z,70.40
2022-10-29T15:23:21.190Z,70.60
2022-10-29T15:25:51.917Z,70.90
2022-10-29T15:28:22.821Z,71.20
2022-10-29T15:30:50.837Z,71.40
2022-10-29T15:33:21.596Z,71.60
2022-10-29T15:35:51.751Z,71.90
2022-10-29T15:38:52.809Z,72.00
2022-10-29T15:41:37.592Z,72.10
2022-10-29T15:44:26.646Z,72.40
2022-10-29T15:46:58.925Z,72.70
2022-10-29T15:49:29.803Z,72.90
2022-10-29T15:52:00.884Z,73.10
2022-10-29T15:54:29.162Z,73.40
2022-10-29T15:56:58.373Z,73.60
2022-10-29T15:59:27.127Z,73.80
2022-10-29T16:01:55.159Z,73.90
2022-10-29T16:04:23.115Z,74.10
2022-10-29T16:06:51.074Z,74.20
2022-10-29T16:09:20.013Z,74.40
2022-10-29T16:11:49.837Z,74.80
2022-10-29T16:14:19.087Z,75.40
2022-10-29T16:16:46.985Z,75.70
2022-10-29T16:19:14.881Z,76.20
2022-10-29T16:21:43.063Z,76.50
2022-10-29T16:24:13.970Z,76.80
2022-10-29T16:26:41.843Z,77.00
2022-10-29T16:29:09.754Z,77.30
2022-10-29T16:31:38.986Z,77.70
2022-10-29T16:34:07.746Z,78.10
2022-10-29T16:36:35.627Z,78.30
2022-10-29T16:39:03.519Z,78.50
2022-10-29T16:41:31.680Z,78.70
2022-10-29T16:43:59.638Z,78.90
2022-10-29T16:46:27.708Z,79.10
2022-10-29T16:48:56.919Z,79.60
2022-10-29T16:51:24.913Z,79.90
2022-10-29T16:53:53.532Z,80.00
2022-10-29T16:56:21.475Z,80.00
2022-10-29T16:58:49.406Z,80.00
2022-10-29T17:01:17.653Z,80.00
2022-10-29T17:03:45.893Z,80.30
2022-10-29T17:06:15.347Z,80.60
2022-10-29T17:08:43.383Z,80.60
2022-10-29T17:11:11.552Z,80.60
2022-10-29T17:13:39.448Z,80.60
2022-10-29T17:16:07.830Z,80.70
2022-10-29T17:18:35.802Z,80.90
2022-10-29T17:21:03.952Z,81.10
2022-10-29T17:23:33.906Z,81.20
2022-10-29T17:26:02.041Z,81.10
2022-10-29T17:28:30.223Z,81.00
2022-10-29T17:30:58.112Z,81.20
2022-10-29T17:33:26.273Z,81.40
2022-10-29T17:36:01.735Z,81.20
2022-10-29T17:38:29.666Z,81.30
2022-10-29T17:40:59.207Z,81.50
2022-10-29T17:43:27.186Z,81.40
2022-10-29T17:45:55.166Z,81.60
2022-10-29T17:48:25.076Z,81.70
2022-10-29T17:50:54.099Z,81.60
2022-10-29T17:53:22.557Z,81.60
2022-10-29T17:55:50.593Z,81.80
2022-10-29T17:58:20.593Z,81.70
2022-10-29T18:00:49.419Z,81.80
2022-10-29T18:03:17.409Z,82.00
2022-10-29T18:05:45.493Z,81.90
2022-10-29T18:08:13.529Z,81.90
2022-10-29T18:10:41.770Z,82.10
2022-10-29T18:13:10.065Z,82.30
2022-10-29T18:15:40.392Z,82.10
2022-10-29T18:18:08.750Z,82.20
2022-10-29T18:20:37.404Z,82.30
2022-10-29T18:23:05.280Z,82.20
2022-10-29T18:25:33.367Z,82.20
2022-10-29T18:28:01.307Z,82.30
2022-10-29T18:30:29.253Z,82.20
2022-10-29T18:32:59.166Z,82.20
2022-10-29T18:35:27.716Z,82.30
2022-10-29T18:37:56.151Z,82.40
2022-10-29T18:40:24.430Z,82.30
2022-10-29T18:42:52.992Z,82.20
2022-10-29T18:45:20.989Z,82.20
2022-10-29T18:47:49.224Z,82.50
2022-10-29T18:50:18.718Z,82.70
2022-10-29T18:52:46.756Z,82.60
2022-10-29T18:55:14.644Z,82.50
2022-10-29T18:57:42.578Z,82.30
2022-10-29T19:00:11.222Z,82.30
2022-10-29T19:02:39.171Z,82.40
2022-10-29T19:05:07.484Z,82.40
2022-10-29T19:07:36.730Z,82.40
2022-10-29T19:10:04.767Z,82.70
2022-10-29T19:12:32.692Z,82.70
2022-10-29T19:15:00.607Z,82.60
2022-10-29T19:17:28.668Z,82.80
2022-10-29T19:19:56.641Z,82.80
2022-10-29T19:22:24.647Z,82.70
2022-10-29T19:24:54.364Z,82.70
2022-10-29T19:27:22.406Z,82.60
2022-10-29T19:29:50.379Z,82.60
2022-10-29T19:32:18.371Z,82.70
2022-10-29T19:34:46.419Z,82.90
2022-10-29T19:37:14.398Z,83.20
2022-10-29T19:39:42.505Z,83.30
2022-10-29T19:42:11.792Z,83.30
2022-10-29T19:44:39.755Z,83.20
2022-10-29T19:47:07.755Z,83.40
2022-10-29T19:49:35.974Z,83.40
2022-10-29T19:52:03.881Z,83.40
2022-10-29T19:54:31.829Z,83.40
2022-10-29T19:56:59.795Z,83.60
2022-10-29T19:59:28.985Z,83.60
2022-10-29T20:01:56.999Z,83.70
2022-10-29T20:04:24.995Z,83.60
2022-10-29T20:06:53.001Z,83.40
2022-10-29T20:09:21.311Z,83.40
2022-10-29T20:11:49.375Z,83.40
2022-10-29T20:14:17.504Z,83.20
2022-10-29T20:16:47.167Z,83.30
2022-10-29T20:19:15.274Z,83.30
2022-10-29T20:21:43.340Z,83.40
2022-10-29T20:24:11.300Z,83.50
2022-10-29T20:26:39.166Z,83.50
2022-10-29T20:29:07.203Z,83.50
2022-10-29T20:31:40.088Z,83.30
2022-10-29T20:34:10.725Z,83.40
2022-10-29T20:36:38.754Z,83.70
2022-10-29T20:39:07.285Z,83.70
2022-10-29T20:41:35.565Z,83.60
2022-10-29T20:44:03.565Z,83.50
2022-10-29T20:46:31.560Z,83.40
2022-10-29T20:48:59.533Z,83.30
2022-10-29T20:51:32.172Z,83.30
2022-10-29T20:54:00.943Z,83.30
2022-10-29T20:56:29.011Z,83.20
2022-10-29T20:58:57.200Z,83.10
2022-10-29T21:01:25.940Z,83.10
2022-10-29T21:03:54.499Z,83.00
2022-10-29T21:06:22.610Z,83.20
2022-10-29T21:08:52.741Z,83.30
2022-10-29T21:11:21.844Z,83.40
2022-10-29T21:13:51.483Z,83.40
2022-10-29T21:16:20.692Z,83.40
2022-10-29T21:18:50.304Z,83.40
2022-10-29T21:21:18.454Z,83.40
2022-10-29T21:23:48.447Z,83.20
2022-10-29T21:26:18.774Z,83.20
2022-10-29T21:28:47.096Z,83.20
2022-10-29T21:31:15.158Z,83.20
2022-10-29T21:33:43.252Z,83.40
2022-10-29T21:36:13.155Z,83.40
2022-10-29T21:38:43.857Z,83.40
2022-10-29T21:41:12.335Z,83.20
2022-10-29T21:43:41.629Z,83.20
2022-10-29T21:46:09.484Z,83.20
2022-10-29T21:48:37.457Z,83.40
2022-10-29T21:51:10.911Z,83.50
2022-10-29T21:53:42.829Z,83.50
2022-10-29T21:56:12.991Z,83.40
2022-10-29T21:58:42.455Z,83.50
2022-10-29T22:01:11.560Z,83.50
2022-10-29T22:03:41.535Z,83.10
2022-10-29T22:06:12.115Z,83.30
2022-10-29T22:08:40.069Z,83.20
2022-10-29T22:11:08.343Z,83.20
2022-10-29T22:13:40.885Z,83.30
2022-10-29T22:16:12.336Z,83.20
2022-10-29T22:18:40.698Z,83.30
2022-10-29T22:21:09.366Z,83.30
2022-10-29T22:23:38.220Z,83.30
2022-10-29T22:26:06.282Z,83.30
2022-10-29T22:28:34.130Z,83.30
2022-10-29T22:31:02.693Z,83.20
2022-10-29T22:33:32.554Z,83.30
2022-10-29T22:36:11.249Z,83.20
2022-10-29T22:38:39.344Z,83.10
2022-10-29T22:41:08.886Z,83.20
2022-10-29T22:43:36.826Z,83.20
2022-10-29T22:46:05.616Z,83.20
2022-10-29T22:48:35.904Z,83.20
2022-10-29T22:51:06.164Z,83.10
2022-10-29T22:53:34.399Z,83.10
2022-10-29T22:56:02.382Z,83.10
2022-10-29T22:58:30.626Z,83.00
2022-10-29T23:01:02.336Z,83.00
2022-10-29T23:03:30.455Z,83.10
2022-10-29T23:06:00.214Z,83.10
2022-10-29T23:08:28.397Z,83.00
2022-10-29T23:10:57.248Z,82.90
2022-10-29T23:13:25.148Z,83.00
2022-10-29T23:15:53.971Z,83.00
2022-10-29T23:18:21.818Z,83.00
2022-10-29T23:20:49.814Z,83.10
2022-10-29T23:23:19.489Z,83.10
2022-10-29T23:25:48.054Z,83.20
2022-10-29T23:28:15.860Z,83.10
2022-10-29T23:30:43.779Z,83.20
2022-10-29T23:33:11.744Z,83.30
2022-10-29T23:35:40.399Z,83.30
2022-10-29T23:38:08.433Z,83.30
2022-10-29T23:40:46.207Z,83.30
2022-10-29T23:43:14.820Z,83.20
2022-10-29T23:45:44.467Z,83.20
2022-10-29T23:48:12.777Z,83.10
2022-10-29T23:50:41.030Z,83.30
2022-10-29T23:53:09.281Z,83.30
2022-10-29T23:55:37.222Z,83.30
2022-10-29T23:58:06.498Z,83.40
